Latest Coastal Weather Observations for Norah Head

IDN60701

Issued at 4:21 am EST Tuesday 28 June 2022 (issued every 10 minutes, with the page automatically refreshed every 10 minutes)

About coastal observations | Map of coastal stations | Coastal observations for NSW | Marine services | Other Formats
Station Details ID: 061366 Name: NORAH HEAD AWS Lat: -33.28 Lon: 151.58 Height: 18.8 m
Data from the previous 72 hours. | See also: Recent months at Norah Head
Date/Time
EST
Wind Sea
Height
m
Swell Vis
km
Cloud Weather Temp
°C
Press
MSL
hPa
Rain since
9am
mm
Dir  Spd
kts
Gust
kts
Height
m
Period
s
Dir
28/04:00am WSW 8 13 - - - - - - - 9.4 1027.9 8.2
28/03:30am WSW 9 16 - - - - - - - 9.7 1028.1 8.2
28/03:00am WSW 10 15 - - - - - - - 9.8 1028.4 8.2
28/02:30am WSW 8 14 - - - - - - - 10.0 1028.4 8.2
28/02:00am WSW 9 13 - - - - - - - 9.6 1028.5 8.2
28/01:30am WSW 8 13 - - - - - - - 9.4 1028.4 8.2
28/01:00am SW 9 16 - - - - - - - 10.5 1028.6 8.2
28/12:30am WSW 8 13 - - - - - - - 9.2 1028.3 8.0
28/12:00am W 6 13 - - - - - - Recent precip. 9.1 1028.7 8.0
 
Date/Time
EST
Wind Sea
Height
m
Swell Vis
km
Cloud Weather Temp
°C
Press
MSL
hPa
Rain since
9am
mm
Dir  Spd
kts
Gust
kts
Height
m
Period
s
Dir
27/11:30pm WSW 3 5 - - - - - - - 9.3 1029.1 7.6
27/11:00pm W 7 12 - - - - - - - 9.6 1028.8 4.6
27/10:30pm WSW 11 17 - - - - - - - 10.4 1028.9 3.4
27/10:00pm WSW 11 18 - - - - - - - 10.5 1028.7 3.4
27/09:30pm SW 9 15 - - - - - - - 10.4 1028.6 3.2
27/09:00pm WSW 4 7 - - - - - - Rain 10.2 1029.0 2.2
27/08:30pm SSW 14 25 - - - - - - - 11.4 1029.0 1.4
27/08:00pm SW 9 16 - - - - - - - 11.2 1028.5 0.8
27/07:30pm SW 15 27 - - - - - - - 11.8 1028.4 0.8
27/07:24pm SSW 15 27 - - - - - - - 12.3 1028.3 0.8
27/07:21pm SSW 15 22 - - - - - - - 11.9 1028.3 0.8
27/07:00pm S 21 29 - - - - - - - 12.9 1028.0 0.2
27/06:58pm SSW 20 29 - - - - - - - 12.9 1027.9 0.2
27/06:30pm SW 12 19 - - - - - - - 13.3 1027.4 0.0
27/06:00pm SSW 23 33 - - - - - - - 14.6 1027.1 0.0
27/05:30pm SSW 22 33 - - - - - - - 14.5 1026.9 0.0
27/05:01pm SSW 21 33 - - - - - - - 14.7 1026.8 0.0
27/05:00pm SSW 20 28 - - - - - - - 14.8 1026.9 0.0
27/04:51pm SSW 21 31 - - - - - - - 14.9 1026.8 0.0
27/04:30pm SSW 22 30 - - - - - - - 14.8 1026.3 0.0
27/04:00pm SSW 28 37 - - - - - - - 14.7 1025.8 0.0
27/03:31pm SSW 24 34 - - - - - - - 14.9 1025.6 0.0
27/03:30pm SSW 25 34 - - - - - - - 14.8 1025.6 0.0
27/03:04pm SSW 24 35 - - - - - - - 14.8 1025.2 0.0
27/03:00pm SSW 24 33 - - - - - - - 14.7 1025.3 0.0
27/02:39pm SSW 27 37 - - - - - - - 14.4 1025.3 0.0
27/02:30pm SSW 28 38 - - - - - - - 14.4 1025.2 0.0
27/02:00pm SSW 24 36 - - - - - - - 15.5 1025.0 0.0
27/01:44pm SSW 26 36 - - - - - - - 15.4 1024.7 0.0
27/01:30pm SSW 23 32 - - - - - - - 15.3 1024.6 0.0
27/01:23pm SSW 20 31 - - - - - - - 15.9 1024.6 0.0
27/01:00pm SSW 19 24 - - - - - - - 15.5 1024.8 0.0
27/12:30pm SSW 14 22 - - - - - - - 14.8 1025.1 0.0
27/12:00pm SSW 17 23 - - - - - - - 15.4 1025.3 0.0
27/11:30am SSW 14 20 - - - - - - - 14.9 1025.3 0.0
27/11:00am SW 13 23 - - - - - - - 14.7 1025.5 0.0
27/10:30am SW 8 21 - - - - - - - 13.7 1025.6 0.0
27/10:00am SW 8 13 - - - - - - - 13.8 1025.7 0.0
27/09:30am WSW 9 14 - - - - - - - 13.3 1025.4 0.0
27/09:00am W 7 15 - - - - - - - 12.6 1025.3 0.0
27/08:30am WSW 5 9 - - - - - - - 11.7 1025.2 0.0
27/08:00am W 4 6 - - - - - - - 11.1 1025.1 0.0
27/07:30am W 4 6 - - - - - - - 10.3 1025.1 0.0
27/07:00am W 6 9 - - - - - - - 10.1 1025.0 0.0
27/06:30am W 5 8 - - - - - - - 9.8 1024.6 0.0
27/06:00am W 4 6 - - - - - - - 10.0 1024.1 0.0
27/05:30am WNW 4 7 - - - - - - - 10.3 1023.7 0.0
27/05:00am WNW 4 7 - - - - - - - 10.5 1023.3 0.0
27/04:30am WNW 4 7 - - - - - - - 10.7 1023.3 0.0
27/04:00am WNW 4 7 - - - - - - - 11.0 1023.2 0.0
27/03:30am WNW 4 5 - - - - - - - 11.5 1023.2 0.0
27/03:00am W 3 6 - - - - - - - 11.8 1023.6 0.0
27/02:30am W 4 7 - - - - - - - 12.1 1023.7 0.0
27/02:00am W 4 7 - - - - - - - 12.2 1024.1 0.0
27/01:30am W 5 8 - - - - - - - 12.5 1024.3 0.0
27/01:00am W 6 9 - - - - - - - 13.0 1024.3 0.0
27/12:30am W 5 8 - - - - - - - 13.3 1024.4 0.0
27/12:00am W 5 7 - - - - - - - 13.4 1024.2 0.0
 
Date/Time
EST
Wind Sea
Height
m
Swell Vis
km
Cloud Weather Temp
°C
Press
MSL
hPa
Rain since
9am
mm
Dir  Spd
kts
Gust
kts
Height
m
Period
s
Dir
26/11:30pm W 5 7 - - - - - - - 13.6 1024.3 0.0
26/11:00pm W 7 9 - - - - - - - 13.7 1024.4 0.0
26/10:30pm W 6 9 - - - - - - - 13.4 1024.2 0.0
26/10:00pm W 7 9 - - - - - - - 13.8 1024.1 0.0
26/09:30pm W 8 11 - - - - - - - 14.1 1024.1 0.0
26/09:00pm W 8 11 - - - - - - - 14.6 1023.8 0.0
26/08:30pm W 6 8 - - - - - - - 15.4 1023.8 0.0
26/08:00pm W 6 8 - - - - - - - 15.7 1023.7 0.0
26/07:30pm W 4 5 - - - - - - - 15.7 1023.5 0.0
26/07:00pm NNW 1 2 - - - - - - - 15.5 1023.6 0.0
26/06:30pm NNW 1 1 - - - - - - - 15.6 1023.3 0.0
26/06:00pm CALM 0 0 - - - - - - - 15.9 1023.1 0.0
26/05:30pm CALM 0 1 - - - - - - - 16.3 1022.9 0.0
26/05:00pm N 2 3 - - - - - - - 16.3 1022.7 0.0
26/04:30pm N 3 4 - - - - - - - 16.9 1022.5 0.0
26/04:00pm WNW 1 2 - - - - - - - 17.6 1022.4 0.0
26/03:30pm W 3 6 - - - - - - - 18.4 1022.3 0.0
26/03:00pm W 4 7 - - - - - - - 18.9 1022.3 0.0
26/02:30pm W 4 8 - - - - - - - 19.1 1022.3 0.0
26/02:00pm W 4 12 - - - - - - - 20.4 1022.3 0.0
26/01:30pm W 5 10 - - - - - - - 20.5 1022.6 0.0
26/01:00pm NW 4 10 - - - - - - - 20.0 1022.7 0.0
26/12:30pm WNW 5 10 - - - - - - - 19.9 1023.1 0.0
26/12:00pm N 7 9 - - - - - - - 20.3 1023.5 0.0
26/11:30am N 9 10 - - - - - - - 19.3 1024.1 0.0
26/11:00am N 7 7 - - - - - - - 19.5 1024.4 0.0
26/10:30am N 2 5 - - - - - - - 18.9 1024.7 0.0
26/10:00am NNW 1 3 - - - - - - - 16.1 1024.8 0.0
26/09:30am NNW 2 5 - - - - - - - 16.7 1024.8 0.0
26/09:00am NNW 4 6 - - - - - - - 15.7 1024.7 0.0
26/08:30am WNW 3 7 - - - - - - - 14.4 1024.8 0.0
26/08:00am WNW 5 7 - - - - - - - 14.1 1024.8 0.0
26/07:30am WNW 4 7 - - - - - - - 12.8 1024.7 0.0
26/07:00am WNW 5 8 - - - - - - - 12.4 1024.5 0.0
26/06:30am WNW 4 6 - - - - - - - 12.5 1024.2 0.0
26/06:00am WNW 4 7 - - - - - - - 12.7 1024.0 0.0
26/05:30am WNW 3 6 - - - - - - - 12.5 1023.7 0.0
26/05:00am W 6 9 - - - - - - - 13.0 1023.4 0.0
26/04:30am W 6 9 - - - - - - - 13.0 1023.3 0.0
26/04:00am W 6 9 - - - - - - - 13.2 1023.1 0.0
26/03:30am W 7 9 - - - - - - - 12.9 1023.0 0.0
26/03:00am W 8 11 - - - - - - - 13.1 1023.2 0.0
26/02:30am W 7 11 - - - - - - - 13.0 1023.2 0.0
26/02:00am WNW 5 9 - - - - - - - 12.6 1023.2 0.0
26/01:30am W 7 9 - - - - - - - 13.0 1023.3 0.0
26/01:00am W 7 9 - - - - - - - 13.4 1023.4 0.0
26/12:30am W 7 9 - - - - - - - 13.5 1023.4 0.0
26/12:00am W 6 9 - - - - - - - 13.6 1023.4 0.0
 
Date/Time
EST
Wind Sea
Height
m
Swell Vis
km
Cloud Weather Temp
°C
Press
MSL
hPa
Rain since
9am
mm
Dir  Spd
kts
Gust
kts
Height
m
Period
s
Dir
25/11:30pm W 6 8 - - - - - - - 14.3 1023.3 0.0
25/11:00pm W 7 9 - - - - - - - 14.1 1023.4 0.0
25/10:30pm W 8 10 - - - - - - - 14.3 1023.4 0.0
25/10:00pm W 7 9 - - - - - - - 14.6 1023.3 0.0
25/09:30pm WNW 5 9 - - - - - - - 15.4 1023.3 0.0
25/09:00pm W 6 8 - - - - - - - 15.7 1023.3 0.0
25/08:30pm W 5 6 - - - - - - - 15.7 1023.1 0.0
25/08:00pm WNW 3 5 - - - - - - - 14.8 1023.0 0.0
25/07:30pm NW 4 6 - - - - - - - 15.6 1022.8 0.0
25/07:00pm WNW 4 6 - - - - - - - 16.2 1022.3 0.0
25/06:30pm WNW 3 4 - - - - - - - 16.4 1022.0 0.0
25/06:00pm W 2 3 - - - - - - - 16.9 1021.7 0.0
25/05:30pm WNW 2 4 - - - - - - - 16.6 1021.4 0.0
25/05:00pm W 2 3 - - - - - - - 17.4 1021.1 0.0
25/04:30pm W 4 5 - - - - - - - 18.2 1020.9 0.0
25/04:00pm W 4 8 - - - - - - - 19.0 1020.8 0.0
25/03:30pm W 3 6 - - - - - - - 20.1 1020.6 0.0
25/03:00pm W 3 7 - - - - - - - 20.5 1020.3 0.0
25/02:30pm WSW 1 4 - - - - - - - 20.2 1020.2 0.0
25/02:00pm W 3 7 - - - - - - - 20.3 1020.2 0.0
25/01:30pm W 5 10 - - - - - - - 19.8 1020.4 0.0
25/01:00pm NW 3 7 - - - - - - - 19.9 1020.5 0.0
25/12:30pm W 2 6 - - - - - - - 19.6 1020.8 0.0
25/12:00pm W 3 6 - - - - - - - 19.2 1021.2 0.0
25/11:30am W 2 5 - - - - - - - 19.1 1021.6 0.0
25/11:00am W 2 5 - - - - - - - 18.6 1022.0 0.0
25/10:30am NW 3 9 - - - - - - - 18.1 1022.0 0.0
25/10:00am WNW 1 6 - - - - - - - 17.2 1022.1 0.0
25/09:30am NW 2 8 - - - - - - - 16.5 1022.0 0.0
25/09:00am WNW 2 5 - - - - - - - 15.2 1021.7 0.0
25/08:30am NW 3 6 - - - - - - - 14.7 1021.6 0.0
25/08:00am NNW 2 4 - - - - - - - 13.7 1021.6 0.0
25/07:30am NW 2 5 - - - - - - - 13.0 1021.4 0.0
25/07:00am NNE 2 4 - - - - - - - 12.0 1021.2 0.0
25/06:30am N 2 4 - - - - - - - 12.2 1020.8 0.0
25/06:00am NW 3 6 - - - - - - - 11.3 1020.5 0.0
25/05:30am NW 4 7 - - - - - - - 11.8 1020.2 0.0
25/05:00am NNW 3 5 - - - - - - - 11.5 1019.9 0.0
25/04:30am NNW 4 6 - - - - - - - 11.8 1019.7 0.0

Other formats

Comma delimited format used in spreadsheet applications
http://www.bom.gov.au/fwo/IDN60701/IDN60701.95770.axf

JavaScript Object Notation format (JSON) in row-major order
http://www.bom.gov.au/fwo/IDN60701/IDN60701.95770.json

Data quality

Most of these data are generated automatically and are frequently updated. Quality checks on data are not normally performed. It is possible for incorrect values to appear. Refer to information at About Latest Weather Observations and please check the disclaimer before using these data.